May 23, 2022

Time Code Weather Temp. Visibility Clouds Wind METAR/SPECI
10:00 am
V
63 °F 6¼ mi+ 5,200 ft 260°   260° 12 kt METAR LFBD 230800Z AUTO 26012KT 9999 FEW018 BKN052 OVC062 17/13 Q1010 TEMPO 24015G25KT 4000 SHRA BKN005 BKN040TCU
9:30 am
V
63 °F 6¼ mi+ 5,000 ft 250°   250° 12 kt METAR LFBD 230730Z AUTO 25012KT 9999 FEW016 OVC050 17/14 Q1010 TEMPO 24015G25KT 4000 SHRA BKN005 BKN040TCU
9:00 am
M
61 °F 6¼ mi+ 1,500 ft 250°   250° 11 kt METAR LFBD 230700Z AUTO 25011KT 9999 BKN015 BKN020 OVC048 16/14 Q1010 TEMPO 24015G25KT 4000 SHRA BKN005 BKN040TCU
8:30 am
M
63 °F 6¼ mi+ 1,400 ft 260°   260° 14 kt METAR LFBD 230630Z AUTO 26014KT 9999 BKN014 BKN023 OVC041 17/14 Q1009 TEMPO 24015G25KT 4000 SHRA BKN005 BKN040TCU
8:00 am
M
63 °F 6¼ mi+ 1,400 ft 260°   260° 14 kt METAR LFBD 230600Z AUTO 26014KT 9999 BKN014 BKN035 BKN043 17/14 Q1009 TEMPO 24015G25KT 4000 SHRA BKN005 BKN040TCU
7:30 am
M
63 °F 6¼ mi+ 1,200 ft 260°   260° 14 kt METAR LFBD 230530Z AUTO 26014KT 9999 BKN012/// BKN022/// OVC035/// //////CB 17/15 Q1008 TEMPO 24015G25KT 4000 SHRA BKN005 BKN040TCU
7:00 am
M
63 °F 6¼ mi+ 2,200 ft 250°   250° 14 kt METAR LFBD 230500Z AUTO 25014KT 9999 SCT013 BKN022 OVC027 17/15 Q1008 TEMPO 24015G25KT 4000 -SHRA BKN007 SCT070TCU
6:30 am
M
63 °F 6¼ mi+ 1,800 ft 260°   260° 14 kt METAR LFBD 230430Z AUTO 26014KT 9999 FEW011 BKN018 BKN041 17/15 Q1008 TEMPO 24015G25KT 4000 -SHRA BKN007 SCT070TCU
6:00 am
M
63 °F 6¼ mi+ 1,100 ft 240°   240° 11 kt METAR LFBD 230400Z AUTO 24011KT 9999 BKN011/// BKN018/// OVC024/// //////TCU 17/15 Q1008 TEMPO 24015G25KT 4000 -SHRA BKN007 SCT070TCU
5:30 am
M
63 °F 6¼ mi+ 2,200 ft 250°   250° 12 kt METAR LFBD 230330Z AUTO 25012KT 9999 SCT012 BKN022 OVC049 17/15 Q1008 TEMPO 24015G25KT 4000 -SHRA BKN007 SCT070TCU
5:00 am
M
63 °F 6¼ mi+ 1,100 ft 250°   250° 11 kt METAR LFBD 230300Z AUTO 25011KT 9999 BKN011 BKN017 OVC022 17/16 Q1008 TEMPO 24015G25KT 4000 -SHRA BKN007 SCT070TCU
4:30 am
I
63 °F 3¾ mi 700 ft 250°   250° 12 kt METAR LFBD 230230Z AUTO 25012KT 6000 -DZ BKN007 OVC011 17/16 Q1008 TEMPO 24015G25KT 4000 -SHRA BKN007 SCT070TCU
4:00 am
I
64 °F 6¼ mi+ 800 ft 230°   230° 15 kt METAR LFBD 230200Z AUTO 23015KT 9999 BKN008 OVC013 18/16 Q1008 TEMPO 24015G25KT 4000 -SHRA BKN007 SCT070TCU
3:30 am
I
64 °F 6¼ mi+ 800 ft 240°   240° 13 kt METAR LFBD 230130Z AUTO 24013KT 9999 BKN008 BKN012 OVC017 18/17 Q1008 TEMPO 24015G25KT 4000 -SHRA BKN007 SCT070TCU
3:00 am
I
64 °F 6¼ mi+ 700 ft 230°   230° 14 kt METAR LFBD 230100Z AUTO 23014KT 9999 BKN007 OVC012 18/17 Q1008 TEMPO 24015G25KT 4000 -SHRA BKN007 SCT070TCU
2:30 am
I
64 °F 6¼ mi+ 800 ft 240°   240° 13 kt METAR LFBD 230030Z AUTO 24013KT 9999 BKN008/// BKN024/// OVC100/// ///CB 18/17 Q1008 TEMPO 24015G25KT 4000 -SHRA
2:00 am
M
64 °F 3⅛ mi 1,000 ft 230°   230° 11 kt METAR LFBD 230000Z AUTO 23011KT 190V270 5000 TSRA BR BKN010/// BKN080/// OVC100/// ///CB 18/17 Q1009 TEMPO 24015G25KT NSW
1:30 am
M
66 °F 6¼ mi+ 1,100 ft 240°   240° 15 kt METAR LFBD 222330Z AUTO 24015KT 9999 BKN011/// OVC018/// //////CB 19/16 Q1009 TEMPO 24015G25KT 4000 -RA BKN007 SCT070TCU
1:00 am
M
66 °F 6¼ mi+ 1,100 ft 230°   230° 15 kt METAR LFBD 222300Z AUTO 23015KT 9999 BKN011 OVC019 19/16 Q1009 TEMPO 24015G25KT 4000 -RA BKN007 SCT070TCU
12:30 am
V
66 °F 6¼ mi+ - 220°   220° 11 kt METAR LFBD 222230Z AUTO 22011KT 9999 FEW012 SCT150 19/16 Q1009 TEMPO 24015G25KT 4000 -RA BKN007 SCT070TCU
12:00 am
V
68 °F 6¼ mi+ - 280°   280° 10 kt METAR LFBD 222200Z AUTO 28010KT 9999 //////TCU 20/15 Q1008 TEMPO 27015G30KT 4000 TSRA BKN070CB

May 22, 2022

Time Code Weather Temp. Visibility Clouds Wind METAR/SPECI
11:30 pm
V
68 °F 6¼ mi+ 7,400 ft 270°   270° 16 kt METAR LFBD 222130Z AUTO 27016KT 9999 FEW014/// BKN074/// BKN088/// //////CB 20/16 Q1008 TEMPO 24015G25KT 4000 -RA BKN007 SCT070TCU
11:00 pm
V
68 °F 6¼ mi+ 6,400 ft 250°   250° 24 kt METAR LFBD 222100Z AUTO 25024KT 9999 SCT015/// BKN064/// BKN080/// //////CB 20/17 Q1009 TEMPO 24015G25KT 4000 -RA BKN007 SCT070TCU
10:30 pm
V
70 °F 6¼ mi+ - 240°   240° 12 kt METAR LFBD 222030Z AUTO 24012KT CAVOK 21/17 Q1008 TEMPO 24015G25KT 4000 -RA BKN007 SCT070TCU
10:00 pm
V
72 °F 6¼ mi+ - 250°   250° 11 kt METAR LFBD 222000Z AUTO 25011KT CAVOK 22/17 Q1008 TEMPO 24015G25KT 4000 -RA BKN007 SCT070TCU
9:30 pm
V
73 °F 6¼ mi+ - 260°   260° 13 kt METAR LFBD 221930Z AUTO 26013KT CAVOK 23/18 Q1007 TEMPO 24015G25KT 4000 -RA BKN007 SCT070TCU
9:00 pm
V
81 °F 6¼ mi+ - 270°   270° 10 kt METAR LFBD 221900Z AUTO 27010KT CAVOK 27/18 Q1006 TEMPO 27015G30KT 4000 TSRA BKN070CB
8:30 pm
V
82 °F 6¼ mi+ - 260°   260° 5 kt METAR LFBD 221830Z AUTO 26005KT 230V290 CAVOK 28/18 Q1006 TEMPO 27015G30KT 4000 TSRA BKN070CB
8:00 pm
V
82 °F 6¼ mi+ - 260°   260° 9 kt METAR LFBD 221800Z AUTO 26009KT 9999 FEW012 28/18 Q1006 TEMPO 27015G30KT 4000 TSRA BKN070CB
7:30 pm
V
84 °F 6¼ mi+ - 260°   260° 11 kt METAR LFBD 221730Z AUTO 26011KT CAVOK 29/16 Q1006 TEMPO 27015G30KT 4000 TSRA BKN070CB
7:00 pm
V
86 °F 6¼ mi+ - 270°   270° 11 kt METAR LFBD 221700Z AUTO 27011KT CAVOK 30/16 Q1006 TEMPO 27015G30KT 4000 TSRA BKN070CB
6:30 pm
V
88 °F 6¼ mi+ - 260°   260° 13 kt METAR LFBD 221630Z AUTO 26013KT CAVOK 31/17 Q1006 TEMPO 27015G30KT 4000 TSRA BKN070CB
6:00 pm
V
90 °F 6¼ mi+ - 240°   240° 12 kt METAR LFBD 221600Z AUTO 24012KT 9999 //////TCU 32/17 Q1006 TEMPO 27015G30KT 4000 TSRA BKN070CB
5:30 pm
V
90 °F 6¼ mi+ - 250°   250° 8 kt METAR LFBD 221530Z AUTO 25008KT 210V280 CAVOK 32/18 Q1006 TEMPO 27015G30KT 4000 TSRA BKN070CB
5:00 pm
V
91 °F 6¼ mi+ - 230°   230° 6 kt METAR LFBD 221500Z AUTO 23006KT 200V270 CAVOK 33/18 Q1006 TEMPO 27015G30KT 4000 TSRA BKN070CB
4:30 pm
V
91 °F 6¼ mi+ - 150°   150° 5 kt METAR LFBD 221430Z AUTO 15005KT 100V210 CAVOK 33/19 Q1006 TEMPO 27015G30KT 4000 TSRA BKN070CB
4:00 pm
V
90 °F 6¼ mi+ - 180°   180° 6 kt METAR LFBD 221400Z AUTO 18006KT 140V200 CAVOK 32/20 Q1007 NOSIG
3:30 pm
V
90 °F 6¼ mi+ - 140°   140° 8 kt METAR LFBD 221330Z AUTO 14008KT 100V170 CAVOK 32/19 Q1007 BECMG 25012KT
3:00 pm
V
86 °F 6¼ mi+ - 120°   120° 10 kt METAR LFBD 221300Z AUTO 12010KT 080V160 CAVOK 30/21 Q1007 BECMG 25012KT
2:30 pm
V
86 °F 6¼ mi+ - 120°   120° 9 kt METAR LFBD 221230Z AUTO 12009KT 090V160 CAVOK 30/21 Q1008 BECMG 25012KT
2:00 pm
V
84 °F 6¼ mi+ - 100°   100° 10 kt METAR LFBD 221200Z AUTO 10010KT 080V140 CAVOK 29/20 Q1008 NOSIG
1:30 pm
V
84 °F 6¼ mi+ - 130°   130° 7 kt METAR LFBD 221130Z AUTO 13007KT 090V180 CAVOK 29/20 Q1009 NOSIG
1:00 pm
V
84 °F 6¼ mi+ - 140°   140° 6 kt METAR LFBD 221100Z AUTO 14006KT 070V180 CAVOK 29/20 Q1009 NOSIG
12:30 pm
V
82 °F 6¼ mi+ - 110°   110° 6 kt METAR LFBD 221030Z AUTO 11006KT 070V150 CAVOK 28/20 Q1009 NOSIG
12:00 pm
V
82 °F 6¼ mi+ - 120°   120° 4 kt METAR LFBD 221000Z AUTO 12004KT 070V170 CAVOK 28/21 Q1010 NOSIG
11:30 am
V
79 °F 6¼ mi+ - 210°   210° 4 kt METAR LFBD 220930Z AUTO 21004KT 180V270 CAVOK 26/20 Q1010 NOSIG
11:00 am
V
77 °F 6¼ mi+ - 240°   240° 4 kt METAR LFBD 220900Z AUTO 24004KT 190V280 CAVOK 25/20 Q1010 BECMG 13010KT
10:30 am
V
75 °F 6¼ mi+ - 200°   200° 5 kt METAR LFBD 220830Z AUTO 20005KT 170V240 CAVOK 24/20 Q1010 NOSIG
10:00 am
V
73 °F 6¼ mi+ - 220°   220° 7 kt METAR LFBD 220800Z AUTO 22007KT CAVOK 23/20 Q1011 BECMG 13010KT
9:30 am
V
72 °F 5⅝ mi - Var   Var 2 kt METAR LFBD 220730Z AUTO VRB02KT 9000 NSC 22/20 Q1011 NOSIG
9:00 am
V
72 °F 6¼ mi+ - 160°   160° 3 kt METAR LFBD 220700Z AUTO 16003KT 110V190 CAVOK 22/20 Q1011 NOSIG
8:30 am
V
70 °F 6¼ mi+ - 130°   130° 4 kt METAR LFBD 220630Z AUTO 13004KT CAVOK 21/19 Q1011 NOSIG
8:00 am
V
70 °F 6¼ mi+ - 110°   110° 3 kt METAR LFBD 220600Z AUTO 11003KT 060V150 CAVOK 21/19 Q1011 NOSIG
7:30 am
V
68 °F 5 mi - 120°   120° 3 kt METAR LFBD 220530Z AUTO 12003KT 8000 NSC 20/19 Q1011 NOSIG
7:00 am
I
68 °F 2⅜ mi - Var   Var 1 kt METAR LFBD 220500Z AUTO VRB01KT 8000 3900 NSC 20/19 Q1012 NOSIG
6:30 am
V
68 °F 5⅝ mi - Var   Var 2 kt METAR LFBD 220430Z AUTO VRB02KT 9000 NSC 20/19 Q1012 NOSIG
6:00 am
I
68 °F 2½ mi - 270°   270° 5 kt METAR LFBD 220400Z AUTO 27005KT 240V320 9000 4000 NSC 20/19 Q1013 NOSIG
5:30 am
M
70 °F 4⅜ mi - 280°   280° 4 kt METAR LFBD 220330Z AUTO 28004KT 7000 NSC 21/19 Q1013 NOSIG
5:00 am
V
70 °F 6¼ mi+ - 260°   260° 2 kt METAR LFBD 220300Z AUTO 26002KT CAVOK 21/19 Q1012 NOSIG
4:30 am
V
70 °F 6¼ mi+ - 260°   260° 2 kt METAR LFBD 220230Z AUTO 26002KT CAVOK 21/19 Q1013 NOSIG
4:00 am
V
70 °F 6¼ mi+ - 240°   240° 5 kt METAR LFBD 220200Z AUTO 24005KT CAVOK 21/19 Q1013 NOSIG
3:30 am
V
72 °F 6¼ mi+ - Var   000° 0 kt METAR LFBD 220130Z AUTO 00000KT CAVOK 22/19 Q1013 NOSIG
3:00 am
V
72 °F 6¼ mi+ - 040°   040° 5 kt METAR LFBD 220100Z AUTO 04005KT CAVOK 22/19 Q1012 NOSIG
2:30 am
V
72 °F 6¼ mi+ - Var   Var 2 kt METAR LFBD 220030Z AUTO VRB02KT CAVOK 22/19 Q1013 NOSIG
2:00 am
V
72 °F 6¼ mi+ - 310°   310° 2 kt METAR LFBD 220000Z AUTO 31002KT CAVOK 22/19 Q1013 NOSIG
1:30 am
V
72 °F 6¼ mi+ - Var   Var 2 kt METAR LFBD 212330Z AUTO VRB02KT CAVOK 22/19 Q1013 NOSIG
1:00 am
V
72 °F 6¼ mi+ - Var   000° 0 kt METAR LFBD 212300Z AUTO 00000KT CAVOK 22/19 Q1014 NOSIG
12:30 am
V
73 °F 6¼ mi+ - Var   000° 0 kt METAR LFBD 212230Z AUTO 00000KT CAVOK 23/19 Q1014 NOSIG
12:00 am
V
75 °F 6¼ mi+ - 030°   030° 3 kt METAR LFBD 212200Z AUTO 03003KT CAVOK 24/19 Q1014 NOSIG

May 21, 2022

Time Code Weather Temp. Visibility Clouds Wind METAR/SPECI
11:30 pm
V
77 °F 6¼ mi+ - 010°   010° 4 kt METAR LFBD 212130Z AUTO 01004KT 330V090 CAVOK 25/19 Q1014 NOSIG
11:00 pm
V
77 °F 6¼ mi+ - 080°   080° 3 kt METAR LFBD 212100Z AUTO 08003KT 040V120 CAVOK 25/19 Q1014 NOSIG
10:30 pm
V
79 °F 6¼ mi+ - 050°   050° 3 kt METAR LFBD 212030Z AUTO 05003KT 020V080 CAVOK 26/20 Q1014 NOSIG
10:00 pm
V
81 °F 6¼ mi+ - 030°   030° 4 kt METAR LFBD 212000Z AUTO 03004KT CAVOK 27/20 Q1014 NOSIG
9:30 pm
V
82 °F 6¼ mi+ - 030°   030° 5 kt METAR LFBD 211930Z AUTO 03005KT CAVOK 28/19 Q1014 NOSIG
9:00 pm
V
82 °F 6¼ mi+ - 080°   080° 4 kt METAR LFBD 211900Z AUTO 08004KT 030V110 CAVOK 28/19 Q1014 NOSIG
8:30 pm
V
84 °F 6¼ mi+ - 040°   040° 5 kt METAR LFBD 211830Z AUTO 04005KT 020V080 CAVOK 29/19 Q1015 NOSIG
8:00 pm
V
84 °F 6¼ mi+ - 020°   020° 6 kt METAR LFBD 211800Z AUTO 02006KT CAVOK 29/19 Q1015 NOSIG
7:30 pm
V
86 °F 6¼ mi+ - 030°   030° 7 kt METAR LFBD 211730Z AUTO 03007KT CAVOK 30/19 Q1015 NOSIG
7:00 pm
V
86 °F 6¼ mi+ - 020°   020° 6 kt METAR LFBD 211700Z AUTO 02006KT CAVOK 30/18 Q1015 NOSIG
6:30 pm
V
88 °F 6¼ mi+ - Var   Var 3 kt METAR LFBD 211630Z AUTO VRB03KT CAVOK 31/18 Q1015 NOSIG
6:00 pm
V
88 °F 6¼ mi+ - Var   Var 3 kt METAR LFBD 211600Z AUTO VRB03KT CAVOK 31/18 Q1015 NOSIG
5:30 pm
V
90 °F 6¼ mi+ - 110°   110° 4 kt METAR LFBD 211530Z AUTO 11004KT 090V160 CAVOK 32/17 Q1015 NOSIG
5:00 pm
V
88 °F 6¼ mi+ - 120°   120° 5 kt METAR LFBD 211500Z AUTO 12005KT 090V170 CAVOK 31/18 Q1016 NOSIG
4:30 pm
V
88 °F 6¼ mi+ - 120°   120° 5 kt METAR LFBD 211430Z AUTO 12005KT 080V180 CAVOK 31/19 Q1016 NOSIG
4:00 pm
V
86 °F 6¼ mi+ - 090°   090° 5 kt METAR LFBD 211400Z AUTO 09005KT 040V140 CAVOK 30/18 Q1016 NOSIG
3:30 pm
V
86 °F 6¼ mi+ - 100°   100° 7 kt METAR LFBD 211330Z AUTO 10007KT 070V140 9999 FEW007 30/18 Q1017 NOSIG
3:00 pm
V
86 °F 6¼ mi+ - 100°   100° 6 kt METAR LFBD 211300Z AUTO 10006KT 060V160 CAVOK 30/18 Q1017 NOSIG
2:30 pm
V
84 °F 6¼ mi+ - 090°   090° 5 kt METAR LFBD 211230Z AUTO 09005KT 030V140 CAVOK 29/18 Q1018 NOSIG
2:00 pm
V
82 °F 6¼ mi+ - 080°   080° 6 kt METAR LFBD 211200Z AUTO 08006KT 040V120 CAVOK 28/18 Q1018 NOSIG
1:30 pm
V
81 °F 6¼ mi+ 18,000 ft 090°   090° 8 kt METAR LFBD 211130Z AUTO 09008KT 060V120 9999 FEW010 BKN180 27/17 Q1018 NOSIG
1:00 pm
V
81 °F 6¼ mi+ - 070°   070° 7 kt METAR LFBD 211100Z AUTO 07007KT 040V110 CAVOK 27/17 Q1018 NOSIG
12:30 pm
V
79 °F 6¼ mi+ - 060°   060° 8 kt METAR LFBD 211030Z AUTO 06008KT 010V100 CAVOK 26/17 Q1019 NOSIG
12:00 pm
V
77 °F 6¼ mi+ - 030°   030° 6 kt METAR LFBD 211000Z AUTO 03006KT 360V060 CAVOK 25/17 Q1019 NOSIG
11:30 am
V
75 °F 6¼ mi+ - 050°   050° 7 kt METAR LFBD 210930Z AUTO 05007KT 020V090 CAVOK 24/17 Q1019 NOSIG
11:00 am
V
73 °F 6¼ mi+ - 050°   050° 5 kt METAR LFBD 210900Z AUTO 05005KT 360V090 CAVOK 23/15 Q1020 NOSIG
10:30 am
V
72 °F 6¼ mi+ - 050°   050° 4 kt METAR LFBD 210830Z AUTO 05004KT 010V090 CAVOK 22/15 Q1020 NOSIG
10:00 am
V
72 °F 6¼ mi+ - 060°   060° 3 kt METAR LFBD 210800Z AUTO 06003KT 360V100 CAVOK 22/15 Q1020 NOSIG
9:30 am
V
70 °F 6¼ mi+ - 060°   060° 3 kt METAR LFBD 210730Z AUTO 06003KT 020V100 CAVOK 21/14 Q1020 NOSIG
9:00 am
V
66 °F 6¼ mi+ - 040°   040° 4 kt METAR LFBD 210700Z AUTO 04004KT 010V070 CAVOK 19/13 Q1020 NOSIG
Older data

Download our app

Easy access to all aviation weather on your mobile phone and tablet.
With many features not available on the website, like offline support and a personal airport list.

We and third parties follow your internet behavior on our website with cookies. If you continue, we assume you agree with our cookie policy. Learn more